Hamaritha — PF2437 — position and weather

sailwx.info

Track history (hours):
 
Tides and Currents Weather Stations Pressure Air Temp Water Temp Dewpoint Dewpoint Depression Visibility Wind Speed Wind Dir Waves Ship Positions

Hamaritha

Last reported at 2016-Sep-21 16:33 UTC. Time now 2016-Sep-26 03:42 UTC.
Position N 51°11' E 006°44'.

Length 86 m.

Type: Ship. MMSI: 244700691.

Date/timePositionNaut miles runAvg speedWind from/ knotsBaromVisibWave heightAir tempDewpointWater temp
2016-Sep-21 16:33N 51°11' E 006°44'20 2.9
2016-Sep-21 09:32N 51°32' E 006°41'3 2.9
2016-Sep-21 08:24N 51°34' E 006°38'48 2.7
2016-Sep-20 14:26N 51°51' E 005°25'3 2.6
2016-Sep-20 13:10N 51°48' E 005°21'5 2.0
2016-Sep-20 10:27N 51°44' E 005°16'1 0.3
2016-Sep-20 06:23N 51°43' E 005°16'0 0.0
2016-Sep-20 02:29N 51°43' E 005°16'0 0.0
2016-Sep-19 23:33N 51°43' E 005°16'0 0.0
2016-Sep-19 19:32N 51°43' E 005°16'0 0.0
2016-Sep-19 18:31N 51°43' E 005°16'0 0.1
2016-Sep-19 14:33N 51°42' E 005°17'0 0.1
2016-Sep-19 13:32N 51°42' E 005°17'0 0.0
2016-Sep-19 12:32N 51°42' E 005°17'0 0.0
2016-Sep-19 11:31N 51°42' E 005°17'0 0.0
2016-Sep-19 09:32N 51°42' E 005°17'1 0.3
2016-Sep-19 07:29N 51°42' E 005°18'0 0.0
2016-Sep-19 06:09N 51°42' E 005°18'1 0.5
2016-Sep-19 03:33N 51°43' E 005°16'0 0.0
2016-Sep-19 02:33N 51°43' E 005°16'0 0.0
2016-Sep-19 00:33N 51°43' E 005°16'0 0.0
2016-Sep-18 19:32N 51°43' E 005°16'0 0.0
2016-Sep-18 15:32N 51°43' E 005°16'0 0.0
2016-Sep-18 14:33N 51°43' E 005°16'0 0.0
2016-Sep-18 10:33N 51°43' E 005°16'0 0.0
2016-Sep-18 09:32N 51°43' E 005°16'0 0.0
2016-Sep-18 02:31N 51°43' E 005°16'0 0.0
2016-Sep-18 01:33N 51°43' E 005°16'0 0.0
2016-Sep-18 00:32N 51°43' E 005°16'0 0.0
2016-Sep-17 22:32N 51°43' E 005°16'0 0.0
2016-Sep-17 21:33N 51°43' E 005°16'0 0.0
2016-Sep-17 20:32N 51°43' E 005°16'0 0.0
2016-Sep-17 19:16N 51°43' E 005°16'0 0.0
2016-Sep-17 13:33N 51°43' E 005°16'6 1.8
2016-Sep-17 10:32N 51°48' E 005°21'15 7.1
2016-Sep-17 08:25N 51°53' E 005°44'30 7.2
2016-Sep-17 04:12N 51°40' E 006°29'28 2.6
2016-Sep-16 17:34N 51°14' E 006°46'30 5.9
2016-Sep-16 12:33N 50°47' E 007°03'  
2016-Sep-13 18:31N 50°43' E 007°08'4 4.3
2016-Sep-13 17:32N 50°47' E 007°03'4 3.8
2016-Sep-13 16:28N 50°50' E 006°59'21 2.9
2016-Sep-13 09:19N 51°09' E 006°48'4 2.4
2016-Sep-13 07:33N 51°13' E 006°45'16 1.3
2016-Sep-12 19:15N 51°30' E 006°42'5 2.9
2016-Sep-12 17:26N 51°34' E 006°38'57 4.1
2016-Sep-12 03:32N 51°49' E 005°09'10 5.1
2016-Sep-12 01:33N 51°48' E 004°53'0 0.0
2016-Sep-11 23:34N 51°48' E 004°53'0 0.0
2016-Sep-11 22:34N 51°48' E 004°53'0 0.0
2016-Sep-11 21:33N 51°48' E 004°53'0 0.0
2016-Sep-11 20:33N 51°48' E 004°53'0 0.0
2016-Sep-11 19:32N 51°48' E 004°53'0 0.0
2016-Sep-11 18:33N 51°48' E 004°53'0 0.0
2016-Sep-11 17:33N 51°48' E 004°53'  
Track history (hours):
 
Tides and Currents Weather Stations Pressure Air Temp Water Temp Dewpoint Dewpoint Depression Visibility Wind Speed Wind Dir Waves Ship Positions

Hamaritha

Last reported at 2016-Sep-21 16:33 UTC. Time now 2016-Sep-26 03:42 UTC.
Position N 51°11' E 006°44'.

Length 86 m.

Type: Ship. MMSI: 244700691.

Date/timePositionNaut miles runAvg speedWind from/ knotsBaromVisibWave heightAir tempDewpointWater temp
2016-Sep-21 16:33N 51°11' E 006°44'20 2.9
2016-Sep-21 09:32N 51°32' E 006°41'3 2.9
2016-Sep-21 08:24N 51°34' E 006°38'48 2.7
2016-Sep-20 14:26N 51°51' E 005°25'3 2.6
2016-Sep-20 13:10N 51°48' E 005°21'5 2.0
2016-Sep-20 10:27N 51°44' E 005°16'1 0.3
2016-Sep-20 06:23N 51°43' E 005°16'0 0.0
2016-Sep-20 02:29N 51°43' E 005°16'0 0.0
2016-Sep-19 23:33N 51°43' E 005°16'0 0.0
2016-Sep-19 19:32N 51°43' E 005°16'0 0.0
2016-Sep-19 18:31N 51°43' E 005°16'0 0.1
2016-Sep-19 14:33N 51°42' E 005°17'0 0.1
2016-Sep-19 13:32N 51°42' E 005°17'0 0.0
2016-Sep-19 12:32N 51°42' E 005°17'0 0.0
2016-Sep-19 11:31N 51°42' E 005°17'0 0.0
2016-Sep-19 09:32N 51°42' E 005°17'1 0.3
2016-Sep-19 07:29N 51°42' E 005°18'0 0.0
2016-Sep-19 06:09N 51°42' E 005°18'1 0.5
2016-Sep-19 03:33N 51°43' E 005°16'0 0.0
2016-Sep-19 02:33N 51°43' E 005°16'0 0.0
2016-Sep-19 00:33N 51°43' E 005°16'0 0.0
2016-Sep-18 19:32N 51°43' E 005°16'0 0.0
2016-Sep-18 15:32N 51°43' E 005°16'0 0.0
2016-Sep-18 14:33N 51°43' E 005°16'0 0.0
2016-Sep-18 10:33N 51°43' E 005°16'0 0.0
2016-Sep-18 09:32N 51°43' E 005°16'0 0.0
2016-Sep-18 02:31N 51°43' E 005°16'0 0.0
2016-Sep-18 01:33N 51°43' E 005°16'0 0.0
2016-Sep-18 00:32N 51°43' E 005°16'0 0.0
2016-Sep-17 22:32N 51°43' E 005°16'0 0.0
2016-Sep-17 21:33N 51°43' E 005°16'0 0.0
2016-Sep-17 20:32N 51°43' E 005°16'0 0.0
2016-Sep-17 19:16N 51°43' E 005°16'0 0.0
2016-Sep-17 13:33N 51°43' E 005°16'6 1.8
2016-Sep-17 10:32N 51°48' E 005°21'15 7.1
2016-Sep-17 08:25N 51°53' E 005°44'30 7.2
2016-Sep-17 04:12N 51°40' E 006°29'28 2.6
2016-Sep-16 17:34N 51°14' E 006°46'30 5.9
2016-Sep-16 12:33N 50°47' E 007°03'  
2016-Sep-13 18:31N 50°43' E 007°08'4 4.3
2016-Sep-13 17:32N 50°47' E 007°03'4 3.8
2016-Sep-13 16:28N 50°50' E 006°59'21 2.9
2016-Sep-13 09:19N 51°09' E 006°48'4 2.4
2016-Sep-13 07:33N 51°13' E 006°45'16 1.3
2016-Sep-12 19:15N 51°30' E 006°42'5 2.9
2016-Sep-12 17:26N 51°34' E 006°38'57 4.1
2016-Sep-12 03:32N 51°49' E 005°09'10 5.1
2016-Sep-12 01:33N 51°48' E 004°53'0 0.0
2016-Sep-11 23:34N 51°48' E 004°53'0 0.0
2016-Sep-11 22:34N 51°48' E 004°53'0 0.0
2016-Sep-11 21:33N 51°48' E 004°53'0 0.0
2016-Sep-11 20:33N 51°48' E 004°53'0 0.0
2016-Sep-11 19:32N 51°48' E 004°53'0 0.0
2016-Sep-11 18:33N 51°48' E 004°53'0 0.0
2016-Sep-11 17:33N 51°48' E 004°53'  

Dump ship's entire track history